Latest Weather Observations for Armament Jetty

IDW60801

Issued at 4:42 pm WST Friday 2 December 2022 (issued every 10 minutes, with the page automatically refreshed every 10 minutes)

About weather observations | Map of weather stations | Latest weather observations for WA | Other Formats
Station Details ID: 009254 Name: ARMAMENT JETTY Lat: -32.18 Lon: 115.68 Height: 9.0 m
Data from the previous 72 hours. | See also: Recent months for locations in Western Australia
Date/Time
WST
Temp
°C
App
Temp
°C
Dew
Point
°C
Rel
Hum
%
Delta-T
°C
Wind Press
QNH
hPa
Press
MSL
hPa
Rain since
9am
mm
Dir  Spd
km/h
Gust
km/h
Spd
kts
Gust
kts
02/04:30pm - - - - - SW 26 33 14 18 - - -
02/04:00pm - - - - - SW 26 33 14 18 - - -
02/03:30pm - - - - - SW 28 33 15 18 - - -
02/03:00pm - - - - - SSW 28 35 15 19 - - -
02/02:30pm - - - - - SW 24 33 13 18 - - -
02/02:00pm - - - - - SW 24 30 13 16 - - -
02/01:30pm - - - - - SSW 26 33 14 18 - - -
02/01:00pm - - - - - SW 28 35 15 19 - - -
02/12:30pm - - - - - SSW 30 37 16 20 - - -
02/12:00pm - - - - - SW 28 35 15 19 - - -
02/11:30am - - - - - SW 20 28 11 15 - - -
02/11:00am - - - - - SW 19 26 10 14 - - -
02/10:30am - - - - - SSW 15 20 8 11 - - -
02/10:00am - - - - - SE 15 17 8 9 - - -
02/09:30am - - - - - SSE 13 17 7 9 - - -
02/09:00am - - - - - SSE 15 17 8 9 - - -
02/08:30am - - - - - SSE 17 20 9 11 - - -
02/08:00am - - - - - SSE 19 20 10 11 - - -
02/07:30am - - - - - SSE 19 22 10 12 - - -
02/07:00am - - - - - SSE 22 26 12 14 - - -
02/06:30am - - - - - SSE 22 30 12 16 - - -
02/06:00am - - - - - S 20 24 11 13 - - -
02/05:30am - - - - - SSE 24 26 13 14 - - -
02/05:00am - - - - - SSE 24 28 13 15 - - -
02/04:30am - - - - - SSE 24 28 13 15 - - -
02/04:00am - - - - - S 20 26 11 14 - - -
02/03:30am - - - - - S 22 26 12 14 - - -
02/03:00am - - - - - S 20 24 11 13 - - -
02/02:30am - - - - - S 22 26 12 14 - - -
02/02:00am - - - - - S 24 30 13 16 - - -
02/01:30am - - - - - S 24 32 13 17 - - -
02/01:00am - - - - - S 22 28 12 15 - - -
02/12:30am - - - - - SSW 26 32 14 17 - - -
02/12:00am - - - - - SSW 28 33 15 18 - - -
 
Date/Time
WST
Temp
°C
App
Temp
°C
Dew
Point
°C
Rel
Hum
%
Delta-T
°C
Wind Press
QNH
hPa
Press
MSL
hPa
Rain since
9am
mm
Dir  Spd
km/h
Gust
km/h
Spd
kts
Gust
kts
01/11:30pm - - - - - SSW 26 32 14 17 - - -
01/11:00pm - - - - - SSW 24 30 13 16 - - -
01/10:30pm - - - - - SSW 24 30 13 16 - - -
01/10:00pm - - - - - SSW 24 30 13 16 - - -
01/09:30pm - - - - - SSW 22 30 12 16 - - -
01/09:00pm - - - - - SW 24 32 13 17 - - -
01/08:30pm - - - - - SSW 20 28 11 15 - - -
01/08:00pm - - - - - SSW 22 28 12 15 - - -
01/07:30pm - - - - - SSW 20 28 11 15 - - -
01/07:00pm - - - - - SSW 24 30 13 16 - - -
01/06:30pm - - - - - SSW 22 32 12 17 - - -
01/06:00pm - - - - - SSW 26 32 14 17 - - -
01/05:30pm - - - - - SSW 26 33 14 18 - - -
01/05:00pm - - - - - SSW 24 32 13 17 - - -
01/04:30pm - - - - - SSW 30 33 16 18 - - -
01/04:00pm - - - - - SSW 24 33 13 18 - - -
01/03:30pm - - - - - SSW 28 35 15 19 - - -
01/03:00pm - - - - - SSW 26 35 14 19 - - -
01/02:30pm - - - - - SSW 28 33 15 18 - - -
01/02:00pm - - - - - SSW 28 35 15 19 - - -
01/01:30pm - - - - - SSW 28 35 15 19 - - -
01/01:00pm - - - - - SSW 24 30 13 16 - - -
01/12:30pm - - - - - SSW 24 30 13 16 - - -
01/12:00pm - - - - - SSW 24 32 13 17 - - -
01/11:30am - - - - - SSW 24 28 13 15 - - -
01/11:00am - - - - - SSW 20 26 11 14 - - -
01/10:30am - - - - - SSW 15 19 8 10 - - -
01/10:00am - - - - - SSW 17 22 9 12 - - -
01/09:30am - - - - - SSW 19 28 10 15 - - -
01/09:00am - - - - - SSW 20 26 11 14 - - -
01/08:30am - - - - - SSW 20 26 11 14 - - -
01/08:00am - - - - - SW 20 28 11 15 - - -
01/07:30am - - - - - SW 17 22 9 12 - - -
01/07:00am - - - - - SW 17 20 9 11 - - -
01/06:30am - - - - - WSW 15 20 8 11 - - -
01/06:00am - - - - - W 13 19 7 10 - - -
01/05:30am - - - - - W 15 19 8 10 - - -
01/05:00am - - - - - W 13 17 7 9 - - -
01/04:30am - - - - - WNW 13 19 7 10 - - -
01/04:00am - - - - - W 19 26 10 14 - - -
01/03:30am - - - - - W 17 24 9 13 - - -
01/03:00am - - - - - W 15 24 8 13 - - -
01/02:30am - - - - - W 13 19 7 10 - - -
01/02:00am - - - - - W 13 19 7 10 - - -
01/01:30am - - - - - WSW 13 15 7 8 - - -
01/01:00am - - - - - W 11 15 6 8 - - -
01/12:30am - - - - - WSW 9 11 5 6 - - -
01/12:00am - - - - - WSW 9 11 5 6 - - -
 
Date/Time
WST
Temp
°C
App
Temp
°C
Dew
Point
°C
Rel
Hum
%
Delta-T
°C
Wind Press
QNH
hPa
Press
MSL
hPa
Rain since
9am
mm
Dir  Spd
km/h
Gust
km/h
Spd
kts
Gust
kts
30/11:30pm - - - - - WSW 13 17 7 9 - - -
30/11:00pm - - - - - W 11 13 6 7 - - -
30/10:30pm - - - - - WSW 11 17 6 9 - - -
30/10:00pm - - - - - WSW 15 20 8 11 - - -
30/09:30pm - - - - - W 13 19 7 10 - - -
30/09:00pm - - - - - W 20 26 11 14 - - -
30/08:30pm - - - - - W 15 20 8 11 - - -
30/08:00pm - - - - - W 17 24 9 13 - - -
30/07:30pm - - - - - WNW 15 19 8 10 - - -
30/07:00pm - - - - - W 15 20 8 11 - - -
30/06:30pm - - - - - WNW 20 28 11 15 - - -
30/06:00pm - - - - - WNW 20 26 11 14 - - -
30/05:30pm - - - - - WNW 22 32 12 17 - - -
30/05:00pm - - - - - WNW 20 28 11 15 - - -
30/04:30pm - - - - - NW 26 30 14 16 - - -
30/04:00pm - - - - - NW 24 33 13 18 - - -
30/03:30pm - - - - - NW 24 33 13 18 - - -
30/03:00pm - - - - - NW 26 33 14 18 - - -
30/02:30pm - - - - - NW 26 33 14 18 - - -
30/02:00pm - - - - - NW 30 39 16 21 - - -
30/01:30pm - - - - - NNW 32 39 17 21 - - -
30/01:00pm - - - - - NNW 28 33 15 18 - - -
30/12:30pm - - - - - N 33 37 18 20 - - -
30/12:00pm - - - - - N 37 41 20 22 - - -
30/11:30am - - - - - N 39 44 21 24 - - -
30/11:00am - - - - - N 39 44 21 24 - - -
30/10:30am - - - - - N 39 48 21 26 - - -
30/10:00am - - - - - N 41 48 22 26 - - -
30/09:30am - - - - - NNW 33 41 18 22 - - -
30/09:00am - - - - - N 35 41 19 22 - - -
30/08:30am - - - - - N 33 39 18 21 - - -
30/08:00am - - - - - N 30 35 16 19 - - -
30/07:30am - - - - - NE 28 32 15 17 - - -
30/07:00am - - - - - ENE 28 32 15 17 - - -
30/06:30am - - - - - NE 28 32 15 17 - - -
30/06:00am - - - - - NE 30 33 16 18 - - -
30/05:30am - - - - - N 13 15 7 8 - - -
30/05:00am - - - - - NNE 28 33 15 18 - - -
30/04:30am - - - - - E 17 26 9 14 - - -
30/04:00am - - - - - E 33 41 18 22 - - -
30/03:30am - - - - - ENE 44 57 24 31 - - -
30/03:07am - - - - - E 46 70 25 38 - - -
30/03:00am - - - - - E 41 57 22 31 - - -
30/02:30am - - - - - E 44 57 24 31 - - -
30/02:00am - - - - - E 39 43 21 23 - - -
30/01:30am - - - - - E 37 48 20 26 - - -
30/01:21am - - - - - E 37 48 20 26 - - -
30/01:00am - - - - - E 26 33 14 18 - - -
30/12:30am - - - - - ENE 15 19 8 10 - - -
30/12:00am - - - - - ESE 24 30 13 16 - - -
 
Date/Time
WST
Temp
°C
App
Temp
°C
Dew
Point
°C
Rel
Hum
%
Delta-T
°C
Wind Press
QNH
hPa
Press
MSL
hPa
Rain since
9am
mm
Dir  Spd
km/h
Gust
km/h
Spd
kts
Gust
kts
29/11:30pm - - - - - ESE 28 39 15 21 - - -
29/11:00pm - - - - - ESE 32 35 17 19 - - -
29/10:30pm - - - - - SE 22 33 12 18 - - -
29/10:00pm - - - - - SE 22 24 12 13 - - -
29/09:30pm - - - - - SE 22 26 12 14 - - -
29/09:00pm - - - - - SSE 20 22 11 12 - - -
29/08:30pm - - - - - SSE 22 24 12 13 - - -
29/08:00pm - - - - - S 26 28 14 15 - - -
29/07:30pm - - - - - S 20 24 11 13 - - -
29/07:00pm - - - - - SSW 24 28 13 15 - - -
29/06:30pm - - - - - SSW 24 28 13 15 - - -
29/06:00pm - - - - - SSW 30 37 16 20 - - -
29/05:30pm - - - - - SSW 28 32 15 17 - - -
29/05:00pm - - - - - S 28 32 15 17 - - -

Other formats

Comma delimited format used in spreadsheet applications
http://www.bom.gov.au/fwo/IDW60801/IDW60801.99254.axf

JavaScript Object Notation format (JSON) in row-major order
http://www.bom.gov.au/fwo/IDW60801/IDW60801.99254.json

Data quality

Most of these data are generated automatically and are frequently updated. Quality checks on data are not normally performed. It is possible for incorrect values to appear. Refer to information at About Latest Weather Observations and please check the disclaimer before using these data.